sensor_id;sensor_type;location;lat;lon;timestamp;temperature;humidity
51855;DHT22;37895;53.240;6.572;2023-07-24T00:01:11;17.80;99.90
51855;DHT22;37895;53.240;6.572;2023-07-24T00:03:36;17.70;99.90
51855;DHT22;37895;53.240;6.572;2023-07-24T00:06:02;17.70;99.90
51855;DHT22;37895;53.240;6.572;2023-07-24T00:08:28;17.70;99.90
51855;DHT22;37895;53.240;6.572;2023-07-24T00:10:53;17.70;99.90
51855;DHT22;37895;53.240;6.572;2023-07-24T00:13:19;17.70;99.90
51855;DHT22;37895;53.240;6.572;2023-07-24T00:15:45;17.70;99.90
51855;DHT22;37895;53.240;6.572;2023-07-24T00:18:10;17.70;99.90
51855;DHT22;37895;53.240;6.572;2023-07-24T00:20:36;17.60;99.90
51855;DHT22;37895;53.240;6.572;2023-07-24T00:23:01;17.60;99.90
51855;DHT22;37895;53.240;6.572;2023-07-24T00:25:27;17.60;99.90
51855;DHT22;37895;53.240;6.572;2023-07-24T00:27:54;17.60;99.90
51855;DHT22;37895;53.240;6.572;2023-07-24T00:30:19;17.60;99.90
51855;DHT22;37895;53.240;6.572;2023-07-24T00:32:45;17.50;99.90
51855;DHT22;37895;53.240;6.572;2023-07-24T00:35:10;17.50;99.90
51855;DHT22;37895;53.240;6.572;2023-07-24T00:37:36;17.50;99.90
51855;DHT22;37895;53.240;6.572;2023-07-24T00:40:02;17.50;99.90
51855;DHT22;37895;53.240;6.572;2023-07-24T00:42:29;17.50;99.90
51855;DHT22;37895;53.240;6.572;2023-07-24T00:44:55;17.50;99.90
51855;DHT22;37895;53.240;6.572;2023-07-24T00:47:21;17.50;99.90
51855;DHT22;37895;53.240;6.572;2023-07-24T00:49:46;17.50;99.90
51855;DHT22;37895;53.240;6.572;2023-07-24T00:52:14;17.40;99.90
51855;DHT22;37895;53.240;6.572;2023-07-24T00:54:40;17.40;99.90
51855;DHT22;37895;53.240;6.572;2023-07-24T00:57:06;17.40;99.90
51855;DHT22;37895;53.240;6.572;2023-07-24T00:59:32;17.40;99.90
51855;DHT22;37895;53.240;6.572;2023-07-24T01:01:58;17.40;99.90
51855;DHT22;37895;53.240;6.572;2023-07-24T01:04:23;17.40;99.90
51855;DHT22;37895;53.240;6.572;2023-07-24T01:06:49;17.30;99.90
51855;DHT22;37895;53.240;6.572;2023-07-24T01:09:15;17.30;99.90
51855;DHT22;37895;53.240;6.572;2023-07-24T01:11:47;17.30;99.90
51855;DHT22;37895;53.240;6.572;2023-07-24T01:15:06;17.30;99.90
51855;DHT22;37895;53.240;6.572;2023-07-24T01:17:15;17.20;99.90
51855;DHT22;37895;53.240;6.572;2023-07-24T01:19:47;17.20;99.90
51855;DHT22;37895;53.240;6.572;2023-07-24T01:25:04;17.10;99.90
51855;DHT22;37895;53.240;6.572;2023-07-24T01:27:30;17.10;99.90
51855;DHT22;37895;53.240;6.572;2023-07-24T01:29:56;17.10;99.90
51855;DHT22;37895;53.240;6.572;2023-07-24T01:32:22;17.10;99.90
51855;DHT22;37895;53.240;6.572;2023-07-24T01:34:48;17.10;99.90
51855;DHT22;37895;53.240;6.572;2023-07-24T01:37:14;17.10;99.90
51855;DHT22;37895;53.240;6.572;2023-07-24T01:39:40;17.10;99.90
51855;DHT22;37895;53.240;6.572;2023-07-24T01:42:07;17.00;99.90
51855;DHT22;37895;53.240;6.572;2023-07-24T01:44:33;17.00;99.90
51855;DHT22;37895;53.240;6.572;2023-07-24T01:46:58;17.00;99.90
51855;DHT22;37895;53.240;6.572;2023-07-24T01:49:24;17.00;99.90
51855;DHT22;37895;53.240;6.572;2023-07-24T01:51:49;16.90;99.90
51855;DHT22;37895;53.240;6.572;2023-07-24T01:54:15;16.90;99.90
51855;DHT22;37895;53.240;6.572;2023-07-24T01:56:41;16.90;99.90
51855;DHT22;37895;53.240;6.572;2023-07-24T01:59:06;16.90;99.90
51855;DHT22;37895;53.240;6.572;2023-07-24T02:01:32;16.90;99.90
51855;DHT22;37895;53.240;6.572;2023-07-24T02:03:58;17.00;99.90
51855;DHT22;37895;53.240;6.572;2023-07-24T02:06:23;17.00;99.90
51855;DHT22;37895;53.240;6.572;2023-07-24T02:08:49;17.00;99.90
51855;DHT22;37895;53.240;6.572;2023-07-24T02:11:16;17.10;99.90
51855;DHT22;37895;53.240;6.572;2023-07-24T02:13:46;17.10;99.90
51855;DHT22;37895;53.240;6.572;2023-07-24T02:16:12;17.10;99.90
51855;DHT22;37895;53.240;6.572;2023-07-24T02:18:40;17.10;99.90
51855;DHT22;37895;53.240;6.572;2023-07-24T02:21:06;17.10;99.90
51855;DHT22;37895;53.240;6.572;2023-07-24T02:23:32;17.10;99.90
51855;DHT22;37895;53.240;6.572;2023-07-24T02:25:57;17.10;99.90
51855;DHT22;37895;53.240;6.572;2023-07-24T02:28:23;17.10;99.90
51855;DHT22;37895;53.240;6.572;2023-07-24T02:30:49;17.10;99.90
51855;DHT22;37895;53.240;6.572;2023-07-24T02:33:15;17.00;99.90
51855;DHT22;37895;53.240;6.572;2023-07-24T02:35:42;17.00;99.90
51855;DHT22;37895;53.240;6.572;2023-07-24T02:38:07;17.00;99.90
51855;DHT22;37895;53.240;6.572;2023-07-24T02:40:34;16.90;99.90
51855;DHT22;37895;53.240;6.572;2023-07-24T02:43:00;16.90;99.90
51855;DHT22;37895;53.240;6.572;2023-07-24T02:45:26;16.90;99.90
51855;DHT22;37895;53.240;6.572;2023-07-24T02:47:51;16.90;99.90
51855;DHT22;37895;53.240;6.572;2023-07-24T02:50:17;16.90;99.90
51855;DHT22;37895;53.240;6.572;2023-07-24T02:52:43;16.90;99.90
51855;DHT22;37895;53.240;6.572;2023-07-24T02:55:08;16.90;99.90
51855;DHT22;37895;53.240;6.572;2023-07-24T02:57:34;16.90;99.90
51855;DHT22;37895;53.240;6.572;2023-07-24T02:59:59;17.00;99.90
51855;DHT22;37895;53.240;6.572;2023-07-24T03:02:25;17.00;99.90
51855;DHT22;37895;53.240;6.572;2023-07-24T03:04:51;17.00;99.90
51855;DHT22;37895;53.240;6.572;2023-07-24T03:07:16;17.00;99.90
51855;DHT22;37895;53.240;6.572;2023-07-24T03:09:42;17.00;99.90
51855;DHT22;37895;53.240;6.572;2023-07-24T03:12:08;17.10;99.90
51855;DHT22;37895;53.240;6.572;2023-07-24T03:14:34;17.10;99.90
51855;DHT22;37895;53.240;6.572;2023-07-24T03:16:59;17.10;99.90
51855;DHT22;37895;53.240;6.572;2023-07-24T03:19:25;17.10;99.90
51855;DHT22;37895;53.240;6.572;2023-07-24T03:21:50;17.10;99.90
51855;DHT22;37895;53.240;6.572;2023-07-24T03:24:16;17.10;99.90
51855;DHT22;37895;53.240;6.572;2023-07-24T03:26:42;17.20;99.90
51855;DHT22;37895;53.240;6.572;2023-07-24T03:29:08;17.20;99.90
51855;DHT22;37895;53.240;6.572;2023-07-24T03:31:33;17.20;99.90
51855;DHT22;37895;53.240;6.572;2023-07-24T03:33:59;17.20;99.90
51855;DHT22;37895;53.240;6.572;2023-07-24T03:36:25;17.20;99.90
51855;DHT22;37895;53.240;6.572;2023-07-24T03:38:50;17.20;99.90
51855;DHT22;37895;53.240;6.572;2023-07-24T03:41:16;17.20;99.90
51855;DHT22;37895;53.240;6.572;2023-07-24T03:43:41;17.30;99.90
51855;DHT22;37895;53.240;6.572;2023-07-24T03:46:07;17.30;99.90
51855;DHT22;37895;53.240;6.572;2023-07-24T03:48:33;17.30;99.90
51855;DHT22;37895;53.240;6.572;2023-07-24T03:51:00;17.30;99.90
51855;DHT22;37895;53.240;6.572;2023-07-24T03:53:27;17.40;99.90
51855;DHT22;37895;53.240;6.572;2023-07-24T03:55:52;17.40;99.90
51855;DHT22;37895;53.240;6.572;2023-07-24T03:58:18;17.30;99.90
51855;DHT22;37895;53.240;6.572;2023-07-24T04:00:44;17.30;99.90
51855;DHT22;37895;53.240;6.572;2023-07-24T04:03:10;17.30;99.90
51855;DHT22;37895;53.240;6.572;2023-07-24T04:05:36;17.30;99.90
51855;DHT22;37895;53.240;6.572;2023-07-24T04:08:02;17.30;99.90
51855;DHT22;37895;53.240;6.572;2023-07-24T04:10:28;17.40;99.90
51855;DHT22;37895;53.240;6.572;2023-07-24T04:12:54;17.40;99.90
51855;DHT22;37895;53.240;6.572;2023-07-24T04:15:19;17.40;99.90
51855;DHT22;37895;53.240;6.572;2023-07-24T04:17:45;17.30;99.90
51855;DHT22;37895;53.240;6.572;2023-07-24T04:20:11;17.40;99.90
51855;DHT22;37895;53.240;6.572;2023-07-24T04:22:37;17.40;99.90
51855;DHT22;37895;53.240;6.572;2023-07-24T04:25:02;17.40;99.90
51855;DHT22;37895;53.240;6.572;2023-07-24T04:27:28;17.40;99.90
51855;DHT22;37895;53.240;6.572;2023-07-24T04:29:54;17.30;99.90
51855;DHT22;37895;53.240;6.572;2023-07-24T04:32:20;17.30;99.90
51855;DHT22;37895;53.240;6.572;2023-07-24T04:34:45;17.40;99.90
51855;DHT22;37895;53.240;6.572;2023-07-24T04:37:11;17.40;99.90
51855;DHT22;37895;53.240;6.572;2023-07-24T04:39:38;17.40;99.90
51855;DHT22;37895;53.240;6.572;2023-07-24T04:42:05;17.40;99.90
51855;DHT22;37895;53.240;6.572;2023-07-24T04:44:30;17.40;99.90
51855;DHT22;37895;53.240;6.572;2023-07-24T04:46:57;17.40;99.90
51855;DHT22;37895;53.240;6.572;2023-07-24T04:49:23;17.40;99.90
51855;DHT22;37895;53.240;6.572;2023-07-24T04:51:50;17.40;99.90
51855;DHT22;37895;53.240;6.572;2023-07-24T04:54:16;17.50;99.90
51855;DHT22;37895;53.240;6.572;2023-07-24T04:56:41;17.40;99.90
51855;DHT22;37895;53.240;6.572;2023-07-24T04:59:08;17.40;99.90
51855;DHT22;37895;53.240;6.572;2023-07-24T05:01:34;17.40;99.90
51855;DHT22;37895;53.240;6.572;2023-07-24T05:03:59;17.40;99.90
51855;DHT22;37895;53.240;6.572;2023-07-24T05:06:25;17.50;99.90
51855;DHT22;37895;53.240;6.572;2023-07-24T05:08:53;17.50;99.90
51855;DHT22;37895;53.240;6.572;2023-07-24T05:11:18;17.50;99.90
51855;DHT22;37895;53.240;6.572;2023-07-24T05:13:44;17.50;99.90
51855;DHT22;37895;53.240;6.572;2023-07-24T05:16:10;17.50;99.90
51855;DHT22;37895;53.240;6.572;2023-07-24T05:18:35;17.50;99.90
51855;DHT22;37895;53.240;6.572;2023-07-24T05:21:01;17.60;99.90
51855;DHT22;37895;53.240;6.572;2023-07-24T05:23:27;17.60;99.90
51855;DHT22;37895;53.240;6.572;2023-07-24T05:25:59;17.60;99.90
51855;DHT22;37895;53.240;6.572;2023-07-24T05:28:30;17.70;99.90
51855;DHT22;37895;53.240;6.572;2023-07-24T05:30:56;17.70;99.90
51855;DHT22;37895;53.240;6.572;2023-07-24T05:33:24;17.70;99.90
51855;DHT22;37895;53.240;6.572;2023-07-24T05:35:50;17.70;99.90
51855;DHT22;37895;53.240;6.572;2023-07-24T05:38:16;17.70;99.90
51855;DHT22;37895;53.240;6.572;2023-07-24T05:40:41;17.70;99.90
51855;DHT22;37895;53.240;6.572;2023-07-24T05:43:07;17.80;99.90
51855;DHT22;37895;53.240;6.572;2023-07-24T05:45:33;17.80;99.90
51855;DHT22;37895;53.240;6.572;2023-07-24T05:47:58;17.80;99.90
51855;DHT22;37895;53.240;6.572;2023-07-24T05:50:24;17.80;99.90
51855;DHT22;37895;53.240;6.572;2023-07-24T05:52:49;17.90;99.90
51855;DHT22;37895;53.240;6.572;2023-07-24T05:55:15;17.90;99.90
51855;DHT22;37895;53.240;6.572;2023-07-24T05:57:41;17.90;99.90
51855;DHT22;37895;53.240;6.572;2023-07-24T06:00:07;17.90;99.90
51855;DHT22;37895;53.240;6.572;2023-07-24T06:02:33;17.80;99.90
51855;DHT22;37895;53.240;6.572;2023-07-24T06:04:58;17.90;99.90
51855;DHT22;37895;53.240;6.572;2023-07-24T06:07:24;17.80;99.90
51855;DHT22;37895;53.240;6.572;2023-07-24T06:09:50;17.70;99.90
51855;DHT22;37895;53.240;6.572;2023-07-24T06:12:15;17.80;99.90
51855;DHT22;37895;53.240;6.572;2023-07-24T06:14:41;17.80;99.90
51855;DHT22;37895;53.240;6.572;2023-07-24T06:17:07;17.80;99.90
51855;DHT22;37895;53.240;6.572;2023-07-24T06:19:32;17.90;99.90
51855;DHT22;37895;53.240;6.572;2023-07-24T06:21:58;17.90;99.90
51855;DHT22;37895;53.240;6.572;2023-07-24T06:24:24;18.00;99.90
51855;DHT22;37895;53.240;6.572;2023-07-24T06:26:50;18.00;99.90
51855;DHT22;37895;53.240;6.572;2023-07-24T06:29:16;18.10;99.90
51855;DHT22;37895;53.240;6.572;2023-07-24T06:31:41;18.10;99.90
51855;DHT22;37895;53.240;6.572;2023-07-24T06:34:07;18.20;99.90
51855;DHT22;37895;53.240;6.572;2023-07-24T06:36:33;18.20;99.90
51855;DHT22;37895;53.240;6.572;2023-07-24T06:38:58;18.30;99.90
51855;DHT22;37895;53.240;6.572;2023-07-24T06:41:24;18.30;99.90
51855;DHT22;37895;53.240;6.572;2023-07-24T06:43:51;18.40;99.90
51855;DHT22;37895;53.240;6.572;2023-07-24T06:46:16;18.50;99.90
51855;DHT22;37895;53.240;6.572;2023-07-24T06:48:42;18.50;99.90
51855;DHT22;37895;53.240;6.572;2023-07-24T06:51:08;18.50;99.90
51855;DHT22;37895;53.240;6.572;2023-07-24T06:53:34;18.50;99.90
51855;DHT22;37895;53.240;6.572;2023-07-24T06:55:59;18.60;99.90
51855;DHT22;37895;53.240;6.572;2023-07-24T06:58:25;18.50;99.90
51855;DHT22;37895;53.240;6.572;2023-07-24T07:00:50;18.60;99.90
51855;DHT22;37895;53.240;6.572;2023-07-24T07:03:16;18.60;99.90
51855;DHT22;37895;53.240;6.572;2023-07-24T07:05:42;18.60;99.90
51855;DHT22;37895;53.240;6.572;2023-07-24T07:08:07;18.70;99.90
51855;DHT22;37895;53.240;6.572;2023-07-24T07:10:33;18.70;99.90
51855;DHT22;37895;53.240;6.572;2023-07-24T07:12:59;18.80;99.90
51855;DHT22;37895;53.240;6.572;2023-07-24T07:15:24;18.90;99.90
51855;DHT22;37895;53.240;6.572;2023-07-24T07:17:50;19.00;99.90
51855;DHT22;37895;53.240;6.572;2023-07-24T07:20:16;19.00;99.90
51855;DHT22;37895;53.240;6.572;2023-07-24T07:22:41;19.10;99.90
51855;DHT22;37895;53.240;6.572;2023-07-24T07:25:07;19.10;99.90
51855;DHT22;37895;53.240;6.572;2023-07-24T07:27:33;19.20;99.90
51855;DHT22;37895;53.240;6.572;2023-07-24T07:29:59;19.20;99.90
51855;DHT22;37895;53.240;6.572;2023-07-24T07:32:24;19.30;99.90
51855;DHT22;37895;53.240;6.572;2023-07-24T07:34:50;19.30;99.90
51855;DHT22;37895;53.240;6.572;2023-07-24T07:37:16;19.30;99.90
51855;DHT22;37895;53.240;6.572;2023-07-24T07:39:41;19.40;99.90
51855;DHT22;37895;53.240;6.572;2023-07-24T07:42:07;19.40;99.90
51855;DHT22;37895;53.240;6.572;2023-07-24T07:44:33;19.40;99.90
51855;DHT22;37895;53.240;6.572;2023-07-24T07:46:58;19.30;99.90
51855;DHT22;37895;53.240;6.572;2023-07-24T07:49:24;19.40;99.90
51855;DHT22;37895;53.240;6.572;2023-07-24T07:51:50;19.40;99.90
51855;DHT22;37895;53.240;6.572;2023-07-24T07:54:15;19.50;99.90
51855;DHT22;37895;53.240;6.572;2023-07-24T07:56:41;19.60;99.90
51855;DHT22;37895;53.240;6.572;2023-07-24T07:59:07;19.70;99.90
51855;DHT22;37895;53.240;6.572;2023-07-24T08:01:33;19.70;99.90
51855;DHT22;37895;53.240;6.572;2023-07-24T08:03:58;19.80;99.90
51855;DHT22;37895;53.240;6.572;2023-07-24T08:06:24;19.90;99.90
51855;DHT22;37895;53.240;6.572;2023-07-24T08:08:50;20.00;99.90
51855;DHT22;37895;53.240;6.572;2023-07-24T08:11:16;20.00;99.90
51855;DHT22;37895;53.240;6.572;2023-07-24T08:13:41;20.20;99.90
51855;DHT22;37895;53.240;6.572;2023-07-24T08:16:14;20.20;99.90
51855;DHT22;37895;53.240;6.572;2023-07-24T08:18:46;20.30;99.90
51855;DHT22;37895;53.240;6.572;2023-07-24T08:21:13;20.40;99.90
51855;DHT22;37895;53.240;6.572;2023-07-24T08:23:40;20.40;99.90
51855;DHT22;37895;53.240;6.572;2023-07-24T08:26:06;20.50;99.90
51855;DHT22;37895;53.240;6.572;2023-07-24T08:28:32;20.50;99.90
51855;DHT22;37895;53.240;6.572;2023-07-24T08:30:59;20.50;99.90
51855;DHT22;37895;53.240;6.572;2023-07-24T08:33:26;20.50;99.90
51855;DHT22;37895;53.240;6.572;2023-07-24T08:36:06;20.60;99.90
51855;DHT22;37895;53.240;6.572;2023-07-24T08:38:32;20.60;99.90
51855;DHT22;37895;53.240;6.572;2023-07-24T08:41:09;20.60;99.90
51855;DHT22;37895;53.240;6.572;2023-07-24T08:43:36;20.50;99.90
51855;DHT22;37895;53.240;6.572;2023-07-24T08:46:03;20.60;99.90
51855;DHT22;37895;53.240;6.572;2023-07-24T08:51:05;20.50;99.90
51855;DHT22;37895;53.240;6.572;2023-07-24T08:53:33;20.40;99.90
51855;DHT22;37895;53.240;6.572;2023-07-24T08:56:05;20.40;99.90
51855;DHT22;37895;53.240;6.572;2023-07-24T08:58:33;20.40;99.90
51855;DHT22;37895;53.240;6.572;2023-07-24T09:01:00;20.40;99.90
51855;DHT22;37895;53.240;6.572;2023-07-24T09:03:26;20.40;99.90
51855;DHT22;37895;53.240;6.572;2023-07-24T09:05:52;20.50;99.90
51855;DHT22;37895;53.240;6.572;2023-07-24T09:08:29;20.50;99.90
51855;DHT22;37895;53.240;6.572;2023-07-24T09:10:55;20.70;99.90
51855;DHT22;37895;53.240;6.572;2023-07-24T09:13:21;20.70;99.90
51855;DHT22;37895;53.240;6.572;2023-07-24T09:15:47;20.70;99.90
51855;DHT22;37895;53.240;6.572;2023-07-24T09:18:12;20.80;99.90
51855;DHT22;37895;53.240;6.572;2023-07-24T09:20:39;20.80;99.90
51855;DHT22;37895;53.240;6.572;2023-07-24T09:23:06;20.90;99.90
51855;DHT22;37895;53.240;6.572;2023-07-24T09:25:33;21.00;99.90
51855;DHT22;37895;53.240;6.572;2023-07-24T09:27:59;21.10;99.90
51855;DHT22;37895;53.240;6.572;2023-07-24T09:30:25;21.20;99.90
51855;DHT22;37895;53.240;6.572;2023-07-24T09:32:54;21.40;99.90
51855;DHT22;37895;53.240;6.572;2023-07-24T09:35:20;21.50;99.90
51855;DHT22;37895;53.240;6.572;2023-07-24T09:38:02;21.50;99.90
51855;DHT22;37895;53.240;6.572;2023-07-24T09:40:28;21.60;99.90
51855;DHT22;37895;53.240;6.572;2023-07-24T09:42:53;21.60;99.90
51855;DHT22;37895;53.240;6.572;2023-07-24T09:45:19;21.60;99.90
51855;DHT22;37895;53.240;6.572;2023-07-24T09:47:45;21.60;99.90
51855;DHT22;37895;53.240;6.572;2023-07-24T09:50:13;21.60;99.90
51855;DHT22;37895;53.240;6.572;2023-07-24T09:52:40;21.70;99.90
51855;DHT22;37895;53.240;6.572;2023-07-24T09:55:22;21.80;99.90
51855;DHT22;37895;53.240;6.572;2023-07-24T09:57:53;21.80;99.90
51855;DHT22;37895;53.240;6.572;2023-07-24T10:00:20;21.90;99.90
51855;DHT22;37895;53.240;6.572;2023-07-24T10:02:46;22.10;99.90
51855;DHT22;37895;53.240;6.572;2023-07-24T10:05:12;22.00;99.90
51855;DHT22;37895;53.240;6.572;2023-07-24T10:07:39;22.20;99.90
51855;DHT22;37895;53.240;6.572;2023-07-24T10:10:05;22.40;99.90
51855;DHT22;37895;53.240;6.572;2023-07-24T10:12:31;22.50;99.90
51855;DHT22;37895;53.240;6.572;2023-07-24T10:14:58;22.60;99.90
51855;DHT22;37895;53.240;6.572;2023-07-24T10:17:37;22.70;99.90
51855;DHT22;37895;53.240;6.572;2023-07-24T10:20:08;22.80;99.90
51855;DHT22;37895;53.240;6.572;2023-07-24T10:22:35;22.80;99.90
51855;DHT22;37895;53.240;6.572;2023-07-24T10:25:01;22.60;99.90
51855;DHT22;37895;53.240;6.572;2023-07-24T10:27:26;22.60;99.90
51855;DHT22;37895;53.240;6.572;2023-07-24T10:30:04;22.50;99.90
51855;DHT22;37895;53.240;6.572;2023-07-24T10:32:33;22.60;99.90
51855;DHT22;37895;53.240;6.572;2023-07-24T10:35:06;22.80;99.90
51855;DHT22;37895;53.240;6.572;2023-07-24T10:37:34;23.10;99.90
51855;DHT22;37895;53.240;6.572;2023-07-24T10:40:00;23.20;99.90
51855;DHT22;37895;53.240;6.572;2023-07-24T10:42:26;23.40;99.90
51855;DHT22;37895;53.240;6.572;2023-07-24T10:45:06;23.30;99.90
51855;DHT22;37895;53.240;6.572;2023-07-24T10:47:33;23.20;99.90
51855;DHT22;37895;53.240;6.572;2023-07-24T10:49:58;22.90;99.90
51855;DHT22;37895;53.240;6.572;2023-07-24T10:52:33;22.50;99.90
51855;DHT22;37895;53.240;6.572;2023-07-24T10:55:03;22.40;99.90
51855;DHT22;37895;53.240;6.572;2023-07-24T10:57:30;22.00;99.90
51855;DHT22;37895;53.240;6.572;2023-07-24T10:59:55;21.80;99.90
51855;DHT22;37895;53.240;6.572;2023-07-24T11:02:21;21.60;99.90
51855;DHT22;37895;53.240;6.572;2023-07-24T11:04:47;21.30;99.90
51855;DHT22;37895;53.240;6.572;2023-07-24T11:07:13;21.20;99.90
51855;DHT22;37895;53.240;6.572;2023-07-24T11:09:40;21.00;99.90
51855;DHT22;37895;53.240;6.572;2023-07-24T11:12:16;20.80;99.90
51855;DHT22;37895;53.240;6.572;2023-07-24T11:14:53;20.90;99.90
51855;DHT22;37895;53.240;6.572;2023-07-24T11:17:22;21.00;99.90
51855;DHT22;37895;53.240;6.572;2023-07-24T11:22:34;21.20;99.90
51855;DHT22;37895;53.240;6.572;2023-07-24T11:25:00;21.10;99.90
51855;DHT22;37895;53.240;6.572;2023-07-24T11:27:26;21.00;99.90
51855;DHT22;37895;53.240;6.572;2023-07-24T11:29:52;21.00;99.90
51855;DHT22;37895;53.240;6.572;2023-07-24T11:32:21;20.90;99.90
51855;DHT22;37895;53.240;6.572;2023-07-24T11:34:49;21.00;99.90
51855;DHT22;37895;53.240;6.572;2023-07-24T11:37:15;21.10;99.90
51855;DHT22;37895;53.240;6.572;2023-07-24T11:39:41;21.10;99.90
51855;DHT22;37895;53.240;6.572;2023-07-24T11:42:07;21.10;99.90
51855;DHT22;37895;53.240;6.572;2023-07-24T11:44:33;21.10;99.90
51855;DHT22;37895;53.240;6.572;2023-07-24T11:47:02;21.20;99.90
51855;DHT22;37895;53.240;6.572;2023-07-24T11:49:29;21.30;99.90
51855;DHT22;37895;53.240;6.572;2023-07-24T11:52:05;21.50;99.90
51855;DHT22;37895;53.240;6.572;2023-07-24T11:54:34;21.60;99.90
51855;DHT22;37895;53.240;6.572;2023-07-24T11:56:59;21.90;99.90
51855;DHT22;37895;53.240;6.572;2023-07-24T11:59:25;22.00;99.90
51855;DHT22;37895;53.240;6.572;2023-07-24T12:01:51;22.10;99.90
51855;DHT22;37895;53.240;6.572;2023-07-24T12:04:17;22.20;99.90
51855;DHT22;37895;53.240;6.572;2023-07-24T12:06:43;22.30;99.90
51855;DHT22;37895;53.240;6.572;2023-07-24T12:09:10;22.60;99.90
51855;DHT22;37895;53.240;6.572;2023-07-24T12:11:40;22.80;99.90
51855;DHT22;37895;53.240;6.572;2023-07-24T12:14:06;22.70;99.90
51855;DHT22;37895;53.240;6.572;2023-07-24T12:16:33;22.60;99.90
51855;DHT22;37895;53.240;6.572;2023-07-24T12:18:59;22.40;99.90
51855;DHT22;37895;53.240;6.572;2023-07-24T12:21:25;22.20;99.90
51855;DHT22;37895;53.240;6.572;2023-07-24T12:23:50;21.90;99.90
51855;DHT22;37895;53.240;6.572;2023-07-24T12:26:16;21.70;99.90
51855;DHT22;37895;53.240;6.572;2023-07-24T12:28:41;21.10;99.90
51855;DHT22;37895;53.240;6.572;2023-07-24T12:31:07;20.80;99.90
51855;DHT22;37895;53.240;6.572;2023-07-24T12:33:32;20.50;99.90
51855;DHT22;37895;53.240;6.572;2023-07-24T12:35:58;20.20;99.90
51855;DHT22;37895;53.240;6.572;2023-07-24T12:38:24;20.00;99.90
51855;DHT22;37895;53.240;6.572;2023-07-24T12:40:49;19.90;99.90
51855;DHT22;37895;53.240;6.572;2023-07-24T12:43:15;19.80;99.90
51855;DHT22;37895;53.240;6.572;2023-07-24T12:45:41;19.80;99.90
51855;DHT22;37895;53.240;6.572;2023-07-24T12:48:07;19.70;99.90
51855;DHT22;37895;53.240;6.572;2023-07-24T12:50:33;19.70;99.90
51855;DHT22;37895;53.240;6.572;2023-07-24T12:52:59;19.70;99.90
51855;DHT22;37895;53.240;6.572;2023-07-24T12:55:24;19.60;99.90
51855;DHT22;37895;53.240;6.572;2023-07-24T12:57:50;19.60;99.90
51855;DHT22;37895;53.240;6.572;2023-07-24T13:00:16;19.50;99.90
51855;DHT22;37895;53.240;6.572;2023-07-24T13:02:41;19.40;99.90
51855;DHT22;37895;53.240;6.572;2023-07-24T13:05:07;19.40;99.90
51855;DHT22;37895;53.240;6.572;2023-07-24T13:07:33;19.40;99.90
51855;DHT22;37895;53.240;6.572;2023-07-24T13:09:58;19.50;99.90
51855;DHT22;37895;53.240;6.572;2023-07-24T13:12:24;19.60;99.90
51855;DHT22;37895;53.240;6.572;2023-07-24T13:14:50;19.70;99.90
51855;DHT22;37895;53.240;6.572;2023-07-24T13:17:16;19.90;99.90
51855;DHT22;37895;53.240;6.572;2023-07-24T13:19:41;20.00;99.90
51855;DHT22;37895;53.240;6.572;2023-07-24T13:22:07;20.10;99.90
51855;DHT22;37895;53.240;6.572;2023-07-24T13:24:33;20.20;99.90
51855;DHT22;37895;53.240;6.572;2023-07-24T13:26:58;20.20;99.90
51855;DHT22;37895;53.240;6.572;2023-07-24T13:29:24;20.20;99.90
51855;DHT22;37895;53.240;6.572;2023-07-24T13:31:50;20.30;99.90
51855;DHT22;37895;53.240;6.572;2023-07-24T13:34:19;20.30;99.90
51855;DHT22;37895;53.240;6.572;2023-07-24T13:36:46;20.40;99.90
51855;DHT22;37895;53.240;6.572;2023-07-24T13:39:12;20.60;99.90
51855;DHT22;37895;53.240;6.572;2023-07-24T13:41:38;20.80;99.90
51855;DHT22;37895;53.240;6.572;2023-07-24T13:44:04;20.90;99.90
51855;DHT22;37895;53.240;6.572;2023-07-24T13:46:30;21.10;99.90
51855;DHT22;37895;53.240;6.572;2023-07-24T13:48:55;21.10;99.90
51855;DHT22;37895;53.240;6.572;2023-07-24T13:51:21;20.90;99.90
51855;DHT22;37895;53.240;6.572;2023-07-24T13:53:47;20.90;99.90
51855;DHT22;37895;53.240;6.572;2023-07-24T13:56:14;20.90;99.90
51855;DHT22;37895;53.240;6.572;2023-07-24T13:58:40;20.70;99.90
51855;DHT22;37895;53.240;6.572;2023-07-24T14:01:06;20.50;99.90
51855;DHT22;37895;53.240;6.572;2023-07-24T14:03:33;20.40;99.90
51855;DHT22;37895;53.240;6.572;2023-07-24T14:05:59;20.50;99.90
51855;DHT22;37895;53.240;6.572;2023-07-24T14:08:24;20.50;99.90
51855;DHT22;37895;53.240;6.572;2023-07-24T14:10:50;20.20;99.90
51855;DHT22;37895;53.240;6.572;2023-07-24T14:13:16;20.20;99.90
51855;DHT22;37895;53.240;6.572;2023-07-24T14:15:42;19.90;99.90
51855;DHT22;37895;53.240;6.572;2023-07-24T14:18:07;19.90;99.90
51855;DHT22;37895;53.240;6.572;2023-07-24T14:20:33;19.80;99.90
51855;DHT22;37895;53.240;6.572;2023-07-24T14:22:58;19.80;99.90
51855;DHT22;37895;53.240;6.572;2023-07-24T14:25:24;19.80;99.90
51855;DHT22;37895;53.240;6.572;2023-07-24T14:27:50;19.80;99.90
51855;DHT22;37895;53.240;6.572;2023-07-24T14:30:15;20.00;99.90
51855;DHT22;37895;53.240;6.572;2023-07-24T14:32:41;19.90;99.90
51855;DHT22;37895;53.240;6.572;2023-07-24T14:35:07;19.60;99.90
51855;DHT22;37895;53.240;6.572;2023-07-24T14:37:32;19.60;99.90
51855;DHT22;37895;53.240;6.572;2023-07-24T14:39:58;19.40;99.90
51855;DHT22;37895;53.240;6.572;2023-07-24T14:42:23;19.20;99.90
51855;DHT22;37895;53.240;6.572;2023-07-24T14:44:49;18.90;99.90
51855;DHT22;37895;53.240;6.572;2023-07-24T14:47:15;18.50;99.90
51855;DHT22;37895;53.240;6.572;2023-07-24T14:49:41;18.60;99.90
51855;DHT22;37895;53.240;6.572;2023-07-24T14:52:07;18.70;99.90
51855;DHT22;37895;53.240;6.572;2023-07-24T14:54:32;18.80;99.90
51855;DHT22;37895;53.240;6.572;2023-07-24T14:56:58;18.90;99.90
51855;DHT22;37895;53.240;6.572;2023-07-24T14:59:24;19.00;99.90
51855;DHT22;37895;53.240;6.572;2023-07-24T15:01:49;18.60;99.90
51855;DHT22;37895;53.240;6.572;2023-07-24T15:04:15;18.50;99.90
51855;DHT22;37895;53.240;6.572;2023-07-24T15:06:41;18.40;99.90
51855;DHT22;37895;53.240;6.572;2023-07-24T15:09:06;18.20;99.90
51855;DHT22;37895;53.240;6.572;2023-07-24T15:11:32;18.10;99.90
51855;DHT22;37895;53.240;6.572;2023-07-24T15:13:57;18.00;99.90
51855;DHT22;37895;53.240;6.572;2023-07-24T15:16:23;18.00;99.90
51855;DHT22;37895;53.240;6.572;2023-07-24T15:18:49;17.90;99.90
51855;DHT22;37895;53.240;6.572;2023-07-24T15:21:14;18.30;99.90
51855;DHT22;37895;53.240;6.572;2023-07-24T15:23:40;18.40;99.90
51855;DHT22;37895;53.240;6.572;2023-07-24T15:26:06;18.40;99.90
51855;DHT22;37895;53.240;6.572;2023-07-24T15:28:31;18.60;99.90
51855;DHT22;37895;53.240;6.572;2023-07-24T15:30:57;18.50;99.90
51855;DHT22;37895;53.240;6.572;2023-07-24T15:33:23;18.30;99.90